Time;durP1;ratioP1;P1;durP2;ratioP2;P2;SDS_P1;SDS_P2;PMS_P1;PMS_P2;Temp;Humidity;BMP_temperature;BMP_pressure;BME280_temperature;BME280_humidity;BME280_pressure;Samples;Min_cycle;Max_cycle;Signal;HPM_P1;HPM_P2
2022/08/10 00:01:12;;;;;;;3.80;2.58;;;;;;;13.14;100.00;155823.41;4891885;29;20442;-77
2022/08/10 00:03:38;;;;;;;2.95;2.60;;;;;;;13.11;100.00;155815.69;4913914;29;20516;-76
2022/08/10 00:06:04;;;;;;;5.00;2.50;;;;;;;13.07;100.00;155805.41;4897341;29;20487;-78
2022/08/10 00:08:29;;;;;;;2.45;2.25;;;;;;;13.02;100.00;155793.88;4912017;29;20043;-78
2022/08/10 00:10:56;;;;;;;5.65;2.58;;;;;;;13.00;100.00;155790.00;4929476;29;20032;-76
2022/08/10 00:13:23;;;;;;;4.05;2.17;;;;;;;13.04;100.00;155799.00;4929195;29;20043;-77
2022/08/10 00:15:51;;;;;;;4.53;2.40;;;;;;;13.08;100.00;155808.00;4905940;29;20035;-76
2022/08/10 00:18:17;;;;;;;7.53;2.75;;;;;;;13.03;100.00;155797.75;4890359;29;20043;-76
2022/08/10 00:20:42;;;;;;;5.65;2.67;;;;;;;13.01;100.00;155792.56;4888426;29;20037;-77
2022/08/10 00:23:08;;;;;;;7.63;2.78;;;;;;;12.97;100.00;155782.28;4889940;29;20043;-76
2022/08/10 00:25:34;;;;;;;7.13;2.90;;;;;;;13.00;100.00;155790.00;4913017;29;20067;-76
2022/08/10 00:27:59;;;;;;;8.43;3.17;;;;;;;12.96;100.00;155778.44;4900739;29;20090;-76
2022/08/10 00:30:25;;;;;;;6.82;2.65;;;;;;;12.85;100.00;155751.47;4900978;29;20505;-76
2022/08/10 00:32:50;;;;;;;7.50;2.88;;;;;;;12.84;100.00;155750.16;4928493;29;20395;-77
2022/08/10 00:35:16;;;;;;;3.90;2.65;;;;;;;12.82;100.00;155745.03;4912342;29;20024;-77
2022/08/10 00:37:42;;;;;;;2.60;2.40;;;;;;;12.83;100.00;155746.34;4903006;29;20402;-78
2022/08/10 00:40:08;;;;;;;4.72;2.58;;;;;;;12.76;100.00;155728.34;4913140;29;20438;-79
2022/08/10 00:42:34;;;;;;;5.22;3.00;;;;;;;12.78;100.00;155733.47;4911694;29;20028;-77
2022/08/10 00:44:59;;;;;;;5.03;3.00;;;;;;;12.79;100.00;155736.03;4909959;29;20040;-77
2022/08/10 00:47:25;;;;;;;4.00;2.80;;;;;;;12.68;100.00;155709.09;4912382;29;20080;-77
2022/08/10 00:49:50;;;;;;;6.60;3.05;;;;;;;12.73;100.00;155721.91;4928121;29;20075;-78
2022/08/10 00:52:18;;;;;;;6.32;3.35;;;;;;;12.68;100.00;155707.75;4889451;29;20032;-78
2022/08/10 00:54:47;;;;;;;10.05;3.15;;;;;;;12.71;100.00;155716.75;4890280;29;20044;-76
2022/08/10 00:57:13;;;;;;;4.57;2.95;;;;;;;12.70;100.00;155714.22;4906098;29;20024;-78
2022/08/10 00:59:40;;;;;;;6.70;2.70;;;;;;;12.65;100.00;155702.63;4910584;29;20518;-76
2022/08/10 01:02:05;;;;;;;5.15;3.10;;;;;;;12.56;100.00;155679.50;4913648;29;20503;-77
2022/08/10 01:04:32;;;;;;;4.25;3.00;;;;;;;12.55;100.00;155675.69;4897083;29;20036;-77
2022/08/10 01:07:40;;;;;;;5.28;3.13;;;;;;;12.58;100.00;155683.38;4896429;29;20046;-77
2022/08/10 01:10:17;;;;;;;5.03;2.90;;;;;;;12.53;100.00;155670.56;4846906;29;20059;-77
2022/08/10 01:12:59;;;;;;;4.72;2.80;;;;;;;12.46;100.00;155655.09;4877786;29;20040;-78
2022/08/10 01:15:35;;;;;;;5.00;3.10;;;;;;;12.51;100.00;155665.38;4900788;29;20059;-77
2022/08/10 01:18:08;;;;;;;3.83;3.28;;;;;;;12.52;100.00;155669.25;4893408;29;20123;-76
2022/08/10 01:20:36;;;;;;;7.32;2.90;;;;;;;12.57;100.00;155680.81;4902033;29;20107;-78
2022/08/10 01:23:17;;;;;;;7.75;3.40;;;;;;;12.47;100.00;155656.44;4898765;29;20039;-77
2022/08/10 01:26:04;;;;;;;15.02;3.13;;;;;;;12.52;100.00;155669.25;4926295;29;20477;-76
2022/08/10 01:28:43;;;;;;;4.72;3.22;;;;;;;12.49;100.00;155661.56;4908349;29;20047;-77
2022/08/10 01:31:13;;;;;;;5.25;3.08;;;;;;;12.44;100.00;155649.97;4911639;29;20403;-77
2022/08/10 01:33:48;;;;;;;6.43;3.47;;;;;;;12.48;100.00;155657.69;4908517;29;20039;-77
2022/08/10 01:36:18;;;;;;;7.07;3.63;;;;;;;12.45;100.00;155652.56;4903359;29;20039;-77
2022/08/10 01:38:47;;;;;;;5.25;3.47;;;;;;;12.38;100.00;155634.56;4909438;29;20403;-78
2022/08/10 01:41:20;;;;;;;4.80;3.03;;;;;;;12.41;100.00;155640.97;4924095;29;20035;-76
2022/08/10 01:44:03;;;;;;;4.68;3.13;;;;;;;12.44;100.00;155648.69;4898561;29;20032;-76
2022/08/10 01:46:29;;;;;;;;;;;;;;;12.38;100.00;155634.56;4896921;29;20512;-77
2022/08/10 01:48:57;;;;;;;5.35;3.65;;;;;;;12.35;100.00;155626.84;4912247;29;19962;-77
2022/08/10 01:51:34;;;;;;;6.93;3.60;;;;;;;12.30;100.00;155612.72;4915235;29;20094;-78
2022/08/10 01:54:04;;;;;;;6.30;3.45;;;;;;;12.32;100.00;155617.84;4916790;29;20040;-77
2022/08/10 01:56:33;;;;;;;4.25;3.35;;;;;;;12.20;100.00;155588.31;4875599;29;20036;-76
2022/08/10 01:59:06;;;;;;;4.95;3.58;;;;;;;12.25;100.00;155602.44;4915033;29;20043;-77
2022/08/10 02:01:39;;;;;;;6.53;3.33;;;;;;;12.29;100.00;155610.19;4906302;29;20065;-77
2022/08/10 02:04:06;;;;;;;;;;;;;;;12.33;100.00;155621.72;4908814;29;20032;-77
2022/08/10 02:06:38;;;;;;;5.43;3.28;;;;;;;12.27;100.00;155606.31;4932252;29;19923;-77
2022/08/10 02:09:06;;;;;;;7.00;3.37;;;;;;;12.20;100.00;155588.31;4915261;29;20060;-78
2022/08/10 02:11:34;;;;;;;6.70;3.40;;;;;;;12.19;100.00;155585.78;4905759;29;20032;-77
2022/08/10 02:14:02;;;;;;;4.75;3.42;;;;;;;12.21;100.00;155592.19;4912191;29;20483;-78
2022/08/10 02:16:29;;;;;;;5.93;3.40;;;;;;;12.20;100.00;155588.31;4896363;29;20036;-78
2022/08/10 02:18:57;;;;;;;4.15;3.20;;;;;;;12.17;100.00;155581.91;4919588;29;20518;-77
2022/08/10 02:21:24;;;;;;;12.50;3.67;;;;;;;12.06;100.00;155553.66;4923629;29;20036;-78
2022/08/10 02:23:52;;;;;;;6.95;3.53;;;;;;;12.08;100.00;155558.81;4899343;29;20498;-78
2022/08/10 02:26:18;;;;;;;6.55;3.13;;;;;;;12.05;100.00;155551.06;4915108;29;20103;-78
2022/08/10 02:28:45;;;;;;;7.90;3.60;;;;;;;12.09;100.00;155561.34;4916370;29;20032;-77
2022/08/10 02:31:14;;;;;;;5.43;3.30;;;;;;;12.10;100.00;155563.94;4899175;29;20036;-75
2022/08/10 02:33:43;;;;;;;9.30;3.10;;;;;;;12.11;100.00;155566.53;4913397;29;20029;-76
2022/08/10 02:36:10;;;;;;;3.97;3.28;;;;;;;12.10;100.00;155562.66;4907139;29;20074;-76
2022/08/10 02:38:42;;;;;;;8.25;3.40;;;;;;;12.07;100.00;155556.22;4910208;29;20058;-77
2022/08/10 02:41:12;;;;;;;9.10;4.10;;;;;;;12.02;100.00;155543.41;4890674;29;20063;-78
2022/08/10 02:43:47;;;;;;;4.97;3.35;;;;;;;12.00;100.00;155538.28;4915230;29;20044;-77
2022/08/10 02:46:28;;;;;;;8.18;3.30;;;;;;;11.95;100.00;155525.41;4898832;29;20043;-76
2022/08/10 02:49:02;;;;;;;6.13;3.53;;;;;;;11.93;100.00;155520.28;4898335;29;20512;-79
2022/08/10 02:51:57;;;;;;;9.05;3.92;;;;;;;11.93;100.00;155520.28;4907927;29;20040;-79
2022/08/10 02:54:26;;;;;;;9.07;3.60;;;;;;;11.90;100.00;155513.84;4896163;29;20044;-78
2022/08/10 02:56:57;;;;;;;4.97;3.53;;;;;;;11.89;100.00;155511.25;4881084;29;20028;-77
2022/08/10 02:59:28;;;;;;;7.30;3.80;;;;;;;11.91;100.00;155515.16;4913602;29;20036;-78
2022/08/10 03:01:57;;;;;;;5.38;3.72;;;;;;;11.89;100.00;155511.25;4914605;29;20127;-77
2022/08/10 03:04:31;;;;;;;6.95;3.72;;;;;;;11.90;100.00;155512.56;4916218;29;20546;-78
2022/08/10 03:07:02;;;;;;;6.65;4.03;;;;;;;11.87;100.00;155507.38;4914683;29;20036;-77
2022/08/10 03:09:30;;;;;;;10.23;4.82;;;;;;;11.86;100.00;155504.78;4914650;29;20036;-79
2022/08/10 03:11:56;;;;;;;7.53;3.97;;;;;;;11.86;100.00;155503.53;4899816;29;20078;-77
2022/08/10 03:14:24;;;;;;;7.25;4.55;;;;;;;11.83;100.00;155495.84;4898864;29;20036;-76
2022/08/10 03:16:52;;;;;;;7.63;4.25;;;;;;;11.83;100.00;155497.13;4930509;29;21049;-79
2022/08/10 03:19:20;;;;;;;8.35;4.20;;;;;;;11.82;100.00;155494.53;4899534;29;20557;-78
2022/08/10 03:21:50;;;;;;;10.70;4.13;;;;;;;11.73;100.00;155470.16;4886824;29;20107;-77
2022/08/10 03:24:21;;;;;;;8.93;3.70;;;;;;;11.78;100.00;155483.00;4911040;29;20407;-76
2022/08/10 03:26:52;;;;;;;7.18;4.25;;;;;;;11.73;100.00;155470.16;4902424;29;20032;-77
2022/08/10 03:29:20;;;;;;;5.95;3.90;;;;;;;11.77;100.00;155480.41;4910466;29;20059;-77
2022/08/10 03:31:47;;;;;;;10.68;4.90;;;;;;;11.75;100.00;155475.28;4915526;29;20423;-76
2022/08/10 03:34:15;;;;;;;6.55;3.75;;;;;;;11.74;100.00;155472.72;4898222;29;20036;-77
2022/08/10 03:36:42;;;;;;;7.10;3.90;;;;;;;11.78;100.00;155483.00;4913812;29;20744;-76
2022/08/10 03:39:08;;;;;;;6.57;4.53;;;;;;;11.72;100.00;155468.88;4914998;29;20039;-77
2022/08/10 03:41:41;;;;;;;7.32;4.07;;;;;;;11.71;100.00;155466.28;4903718;29;20036;-76
2022/08/10 03:44:09;;;;;;;6.35;4.25;;;;;;;11.77;100.00;155480.41;4918102;29;20389;-76
2022/08/10 03:46:39;;;;;;;10.70;4.70;;;;;;;11.74;100.00;155474.00;4897094;29;20380;-77
2022/08/10 03:49:06;;;;;;;12.00;4.72;;;;;;;11.64;100.00;155449.63;4912586;29;20040;-76
2022/08/10 03:51:33;;;;;;;8.57;4.53;;;;;;;11.71;100.00;155465.00;4897829;29;20052;-77
2022/08/10 03:54:01;;;;;;;9.15;4.22;;;;;;;11.65;100.00;155452.16;4915534;29;20051;-77
2022/08/10 03:56:27;;;;;;;7.40;4.03;;;;;;;11.71;100.00;155466.28;4913230;29;20036;-77
2022/08/10 03:58:53;;;;;;;9.60;5.07;;;;;;;11.75;100.00;155475.28;4916452;29;20036;-77
2022/08/10 04:01:19;;;;;;;10.80;4.75;;;;;;;11.68;100.00;155459.88;4929798;29;20035;-77
2022/08/10 04:03:45;;;;;;;7.30;4.82;;;;;;;11.75;100.00;155476.53;4901781;29;20391;-77
2022/08/10 04:06:11;;;;;;;10.75;4.97;;;;;;;11.80;100.00;155489.41;4916199;29;20479;-79
2022/08/10 04:08:43;;;;;;;9.60;4.75;;;;;;;11.80;100.00;155489.41;4914913;29;20036;-77
2022/08/10 04:11:09;;;;;;;7.80;5.30;;;;;;;11.86;100.00;155503.53;4910826;29;20033;-78
2022/08/10 04:13:36;;;;;;;6.15;4.63;;;;;;;11.94;100.00;155522.81;4917556;29;20542;-77
2022/08/10 04:16:03;;;;;;;12.05;5.32;;;;;;;12.00;100.00;155538.28;4909864;29;20047;-78
2022/08/10 04:18:29;;;;;;;9.23;5.40;;;;;;;11.97;100.00;155530.56;4906970;29;20044;-76
2022/08/10 04:21:02;;;;;;;9.18;5.38;;;;;;;12.03;100.00;155547.22;4903489;29;20067;-76
2022/08/10 04:23:30;;;;;;;12.63;6.45;;;;;;;12.06;100.00;155554.94;4915153;29;20036;-77
2022/08/10 04:25:56;;;;;;;11.57;6.10;;;;;;;12.15;100.00;155575.47;4929524;29;20040;-77
2022/08/10 04:28:23;;;;;;;9.25;5.85;;;;;;;12.27;100.00;155606.31;4894579;29;20079;-76
2022/08/10 04:30:51;;;;;;;8.98;5.53;;;;;;;12.27;100.00;155606.31;4929675;29;20368;-77
2022/08/10 04:33:21;;;;;;;8.20;5.18;;;;;;;12.29;100.00;155611.44;4909951;29;20079;-76
2022/08/10 04:35:49;;;;;;;10.38;5.40;;;;;;;12.28;100.00;155608.84;4928789;29;20612;-77
2022/08/10 04:38:17;;;;;;;15.57;6.18;;;;;;;12.36;100.00;155628.16;4905493;29;20044;-77
2022/08/10 04:40:45;;;;;;;9.82;5.68;;;;;;;12.40;100.00;155639.72;4897477;29;20091;-76
2022/08/10 04:43:12;;;;;;;12.52;6.03;;;;;;;12.51;100.00;155665.38;4899202;29;20379;-77
2022/08/10 04:45:38;;;;;;;7.82;5.60;;;;;;;12.57;100.00;155682.09;4897440;29;20047;-76
2022/08/10 04:48:04;;;;;;;14.77;6.93;;;;;;;12.74;100.00;155723.22;4913128;29;20072;-77
2022/08/10 04:50:30;;;;;;;14.30;6.38;;;;;;;12.82;100.00;155745.03;4894748;29;20532;-75
2022/08/10 04:52:55;;;;;;;10.90;6.13;;;;;;;12.90;100.00;155763.03;4891562;29;20514;-76
2022/08/10 04:55:21;;;;;;;13.80;7.00;;;;;;;12.99;100.00;155787.41;4908679;29;20060;-76
2022/08/10 04:57:47;;;;;;;10.75;6.40;;;;;;;13.10;100.00;155814.41;4888674;29;20513;-76
2022/08/10 05:00:13;;;;;;;21.48;6.70;;;;;;;13.13;100.00;155822.16;4881630;29;20407;-76
2022/08/10 05:02:38;;;;;;;10.23;5.80;;;;;;;13.13;100.00;155822.16;4913065;29;20827;-76
2022/08/10 05:05:04;;;;;;;12.40;6.95;;;;;;;13.20;100.00;155838.81;4904977;29;20039;-77
2022/08/10 05:07:30;;;;;;;13.63;6.22;;;;;;;13.21;100.00;155841.41;4898783;29;20558;-77
2022/08/10 05:09:55;;;;;;;10.35;6.22;;;;;;;13.30;100.00;155864.59;4905024;29;20040;-77
2022/08/10 05:12:21;;;;;;;19.30;6.25;;;;;;;13.42;100.00;155895.41;4897207;29;20044;-77
2022/08/10 05:14:47;;;;;;;10.25;5.93;;;;;;;13.56;100.00;155928.84;4913072;29;20080;-78
2022/08/10 05:17:13;;;;;;;12.48;6.10;;;;;;;13.71;100.00;155966.13;4912520;29;20121;-77
2022/08/10 05:19:39;;;;;;;16.42;6.03;;;;;;;13.86;100.00;156003.41;4882008;29;20044;-77
2022/08/10 05:22:05;;;;;;;14.75;6.03;;;;;;;14.04;100.00;156048.41;4901047;29;20051;-78
2022/08/10 05:24:31;;;;;;;15.70;5.70;;;;;;;14.11;100.00;156066.38;4886798;29;20063;-78
2022/08/10 05:26:56;;;;;;;17.98;4.85;;;;;;;14.30;100.00;156115.28;4931706;29;20070;-77
2022/08/10 05:29:22;;;;;;;9.70;4.40;;;;;;;14.54;100.00;156174.41;4894455;29;20487;-76
2022/08/10 05:31:48;;;;;;;9.27;4.10;;;;;;;14.58;100.00;156186.06;4914440;29;20117;-76
2022/08/10 05:34:15;;;;;;;9.52;4.82;;;;;;;14.82;100.00;156245.19;4914949;29;20440;-75
2022/08/10 05:36:41;;;;;;;10.65;4.45;;;;;;;14.99;100.00;156288.97;4913414;29;20071;-75
2022/08/10 05:39:09;;;;;;;12.25;4.63;;;;;;;15.12;100.00;156321.09;4912990;29;20036;-76
2022/08/10 05:41:36;;;;;;;6.70;4.00;;;;;;;15.24;100.00;156349.41;4890357;29;20039;-77
2022/08/10 05:44:02;;;;;;;7.18;4.15;;;;;;;15.35;100.00;156379.03;4906649;29;20040;-77
2022/08/10 05:46:28;;;;;;;4.90;4.18;;;;;;;15.58;100.00;156435.63;4888693;29;20487;-76
2022/08/10 05:48:53;;;;;;;9.20;4.63;;;;;;;15.73;100.00;156474.28;4897962;29;20036;-75
2022/08/10 05:51:20;;;;;;;7.32;4.15;;;;;;;15.85;100.00;156503.88;4900882;29;20036;-77
2022/08/10 05:53:46;;;;;;;7.28;4.53;;;;;;;15.93;100.00;156523.19;4913879;29;20051;-77
2022/08/10 05:56:11;;;;;;;9.50;4.20;;;;;;;15.96;100.00;156530.91;4907965;29;20024;-77
2022/08/10 05:58:37;;;;;;;5.28;4.20;;;;;;;15.94;100.00;156527.06;4907318;29;20414;-77
2022/08/10 06:01:12;;;;;;;5.78;4.07;;;;;;;16.05;100.00;156554.09;4913961;29;20040;-76
2022/08/10 06:03:57;;;;;;;7.20;3.75;;;;;;;16.20;100.00;156590.09;4916135;29;20068;-77
2022/08/10 06:06:26;;;;;;;8.48;4.07;;;;;;;16.47;100.00;156658.38;4883341;29;20119;-77
2022/08/10 06:08:52;;;;;;;7.05;3.60;;;;;;;16.62;100.00;156695.72;4896679;29;20036;-77
2022/08/10 06:11:20;;;;;;;5.95;4.05;;;;;;;16.51;100.00;156668.66;4928007;29;20039;-77
2022/08/10 06:16:34;;;;;;;6.07;3.70;;;;;;;16.64;100.00;156700.84;4913528;29;20055;-76
2022/08/10 06:19:00;;;;;;;7.97;3.70;;;;;;;16.68;100.00;156711.16;4915812;29;20051;-76
2022/08/10 06:21:27;;;;;;;14.50;4.22;;;;;;;16.75;100.00;156729.19;4911970;29;20051;-78
2022/08/10 06:23:53;;;;;;;13.65;3.72;;;;;;;16.81;100.00;156744.63;4895518;29;20050;-77
2022/08/10 06:26:19;;;;;;;6.43;3.45;;;;;;;16.90;100.00;156766.59;4908699;29;20024;-77
2022/08/10 06:28:59;;;;;;;4.93;3.70;;;;;;;17.00;100.00;156792.31;4896735;29;20112;-76
2022/08/10 06:31:27;;;;;;;6.95;3.53;;;;;;;17.08;100.00;156812.97;4914947;29;20028;-76
2022/08/10 06:33:55;;;;;;;8.07;3.63;;;;;;;17.36;100.00;156881.22;4899602;29;20032;-77
2022/08/10 06:36:23;;;;;;;8.68;3.53;;;;;;;17.64;100.00;156953.34;4915147;29;20500;-77
2022/08/10 06:38:50;;;;;;;7.30;3.55;;;;;;;17.63;100.00;156950.78;4930397;29;20124;-77
2022/08/10 06:41:21;;;;;;;7.43;3.38;;;;;;;17.80;100.00;156993.31;4895604;29;20032;-77
2022/08/10 06:43:53;;;;;;;6.40;3.15;;;;;;;17.96;100.00;157033.28;4880169;29;20089;-77
2022/08/10 06:46:22;;;;;;;6.68;3.20;;;;;;;18.05;100.00;157056.50;4902595;29;20055;-77
2022/08/10 06:48:51;;;;;;;4.82;3.00;;;;;;;18.26;100.00;157109.31;4914336;29;20047;-76
2022/08/10 06:51:28;;;;;;;5.25;3.20;;;;;;;18.34;100.00;157128.66;4898798;29;20047;-77
2022/08/10 06:53:58;;;;;;;7.32;3.55;;;;;;;18.46;100.00;157158.31;4914472;29;20067;-78
2022/08/10 06:56:27;;;;;;;7.53;3.13;;;;;;;18.45;100.00;157157.00;4907400;29;20800;-77
2022/08/10 06:58:57;;;;;;;7.60;2.70;;;;;;;18.54;100.00;157178.94;4890291;29;20051;-78
2022/08/10 07:01:31;;;;;;;10.88;2.88;;;;;;;18.65;100.00;157206.03;4904826;29;20075;-76
2022/08/10 07:04:01;;;;;;;12.75;3.13;;;;;;;18.92;100.00;157274.38;4914890;29;20075;-76
2022/08/10 07:06:28;;;;;;;5.80;2.78;;;;;;;18.95;100.00;157282.13;4916790;29;20116;-77
2022/08/10 07:08:56;;;;;;;6.18;2.70;;;;;;;19.04;100.00;157304.03;4901884;29;20122;-77
2022/08/10 07:11:23;;;;;;;7.72;2.85;;;;;;;19.16;100.00;157333.72;4895997;29;20047;-76
2022/08/10 07:13:50;;;;;;;12.88;2.45;;;;;;;19.36;99.23;157385.25;4918058;29;20376;-77
2022/08/10 07:16:17;;;;;;;7.30;2.50;;;;;;;19.53;97.75;157427.81;4914273;29;20036;-77
2022/08/10 07:18:46;;;;;;;6.10;2.50;;;;;;;19.66;95.49;157460.06;4914017;29;20036;-78
2022/08/10 07:21:13;;;;;;;8.32;2.47;;;;;;;19.73;96.02;157476.91;4910559;29;20068;-76
2022/08/10 07:23:44;;;;;;;9.85;2.53;;;;;;;19.64;97.11;157456.19;4914583;29;20043;-77
2022/08/10 07:26:12;;;;;;;8.43;2.08;;;;;;;19.89;95.22;157518.19;4901838;29;20024;-76
2022/08/10 07:28:38;;;;;;;2.88;1.70;;;;;;;20.03;92.14;157553.00;4901725;29;20032;-77
2022/08/10 07:31:05;;;;;;;8.00;2.08;;;;;;;19.90;91.59;157520.75;4912916;29;20123;-76
2022/08/10 07:33:33;;;;;;;7.22;2.38;;;;;;;20.01;91.76;157549.13;4914197;29;20057;-76
2022/08/10 07:36:00;;;;;;;9.13;1.80;;;;;;;20.19;91.58;157592.97;4907005;29;20067;-76
2022/08/10 07:38:28;;;;;;;5.47;2.00;;;;;;;20.41;91.68;157648.47;4890369;29;20047;-77
2022/08/10 07:40:59;;;;;;;4.18;2.00;;;;;;;20.48;90.80;157666.56;4897456;29;20031;-77
2022/08/10 07:43:26;;;;;;;5.68;1.77;;;;;;;20.59;88.75;157694.94;4906822;29;20529;-78
2022/08/10 07:45:54;;;;;;;8.43;2.08;;;;;;;20.68;88.06;157715.63;4929234;29;20039;-76
2022/08/10 07:48:25;;;;;;;6.38;1.80;;;;;;;20.66;86.75;157710.47;4913510;29;20517;-76
2022/08/10 07:50:56;;;;;;;7.07;1.85;;;;;;;20.85;87.35;157759.53;4914010;29;20594;-78
2022/08/10 07:53:25;;;;;;;4.43;1.87;;;;;;;20.88;85.24;157767.25;4908107;29;20028;-78
2022/08/10 07:55:52;;;;;;;6.35;1.60;;;;;;;21.11;83.25;157824.03;4914737;29;20070;-77
2022/08/10 07:58:24;;;;;;;6.53;2.45;;;;;;;21.16;81.75;157836.97;4913498;29;20034;-79
2022/08/10 08:00:51;;;;;;;6.43;1.65;;;;;;;21.27;83.45;157865.38;4914257;29;21010;-78
2022/08/10 08:03:23;;;;;;;4.00;1.50;;;;;;;21.48;81.50;157917.06;4896488;29;20042;-79
2022/08/10 08:05:49;;;;;;;4.65;1.45;;;;;;;21.55;80.50;157935.16;4914151;29;20047;-77
2022/08/10 08:08:16;;;;;;;5.32;1.40;;;;;;;21.70;78.23;157972.53;4914006;29;20036;-78
2022/08/10 08:10:42;;;;;;;8.95;1.30;;;;;;;21.71;80.48;157975.16;4894287;29;20033;-78
2022/08/10 08:13:09;;;;;;;7.65;1.50;;;;;;;21.70;78.97;157973.88;4896017;29;20039;-78
2022/08/10 08:15:34;;;;;;;5.75;1.65;;;;;;;21.72;77.86;157979.03;4906138;29;20487;-77
2022/08/10 08:18:01;;;;;;;7.78;1.50;;;;;;;21.62;77.21;157953.19;4898019;29;20040;-78
2022/08/10 08:20:28;;;;;;;8.55;1.60;;;;;;;21.66;76.80;157962.22;4891570;29;20067;-78
2022/08/10 08:22:54;;;;;;;5.47;1.30;;;;;;;21.87;77.70;158016.50;4912829;29;20040;-77
2022/08/10 08:25:21;;;;;;;5.93;1.40;;;;;;;21.99;76.42;158044.91;4905102;29;20031;-77
2022/08/10 08:27:51;;;;;;;10.50;1.38;;;;;;;22.01;73.84;158051.34;4910476;29;20044;-77
2022/08/10 08:30:19;;;;;;;7.70;1.50;;;;;;;21.94;72.35;158033.25;4913281;29;20088;-77
2022/08/10 08:32:45;;;;;;;11.85;1.55;;;;;;;22.11;73.33;158077.19;4897284;29;20055;-77
2022/08/10 08:35:16;;;;;;;4.82;1.58;;;;;;;22.28;71.55;158118.53;4912826;29;20570;-78
2022/08/10 08:37:45;;;;;;;6.87;1.47;;;;;;;22.25;71.40;158110.78;4896459;29;20123;-77
2022/08/10 08:40:28;;;;;;;6.18;1.60;;;;;;;22.37;71.81;158140.50;4913069;29;20040;-77
2022/08/10 08:43:31;;;;;;;10.68;2.65;;;;;;;22.55;68.50;158188.31;4885105;29;20040;-77
2022/08/10 08:46:08;;;;;;;5.65;1.30;;;;;;;22.60;67.78;158198.63;4901107;29;20127;-76
2022/08/10 08:48:55;;;;;;;10.05;1.30;;;;;;;22.74;65.78;158236.09;4903430;29;20487;-77
2022/08/10 08:51:47;;;;;;;3.22;1.02;;;;;;;22.89;65.08;158272.28;4911663;29;20036;-76
2022/08/10 08:54:32;;;;;;;7.47;1.40;;;;;;;22.90;66.36;158274.84;4907675;29;20451;-76
2022/08/10 08:56:58;;;;;;;8.10;1.40;;;;;;;23.04;63.81;158309.81;4892128;29;20047;-78
2022/08/10 08:59:29;;;;;;;6.25;1.50;;;;;;;23.02;64.19;158304.56;4889808;29;20134;-78
2022/08/10 09:02:28;;;;;;;6.10;1.10;;;;;;;23.24;63.11;158361.47;4909486;29;20466;-77
2022/08/10 09:05:14;;;;;;;5.07;1.13;;;;;;;23.27;61.88;158367.94;4928139;29;20040;-77
2022/08/10 09:08:05;;;;;;;5.93;1.30;;;;;;;23.22;62.58;158356.28;4909555;29;20044;-77
2022/08/10 09:10:50;;;;;;;4.57;1.17;;;;;;;23.11;65.67;158327.88;4906419;29;20491;-77
2022/08/10 09:13:31;;;;;;;5.43;1.30;;;;;;;23.20;64.22;158351.13;4890722;29;20062;-77
2022/08/10 09:16:24;;;;;;;6.05;1.20;;;;;;;23.18;63.85;158344.69;4912322;29;20063;-77
2022/08/10 09:19:07;;;;;;;10.38;1.50;;;;;;;23.26;66.47;158366.66;4910250;29;20040;-76
2022/08/10 09:21:45;;;;;;;;;;;;;;;23.24;64.16;158361.47;4906679;29;20028;-76
2022/08/10 09:24:30;;;;;;;4.50;1.33;;;;;;;23.20;63.26;158351.13;4915544;29;20397;-77
2022/08/10 09:27:00;;;;;;;5.53;1.77;;;;;;;23.22;63.78;158355.00;4905313;29;20044;-76
2022/08/10 09:29:30;;;;;;;4.95;1.30;;;;;;;23.55;65.10;158439.03;4908549;29;20475;-78
2022/08/10 09:32:09;;;;;;;7.32;1.73;;;;;;;23.65;66.07;158463.59;4910037;29;20032;-76
2022/08/10 09:35:10;;;;;;;6.72;1.55;;;;;;;23.93;64.91;158534.72;4908205;29;20043;-77
2022/08/10 09:37:59;;;;;;;5.35;1.60;;;;;;;24.11;64.91;158580.00;4913459;29;20060;-79
2022/08/10 09:40:47;;;;;;;4.65;1.75;;;;;;;24.16;62.92;158592.88;4913732;29;20032;-78
2022/08/10 09:43:34;;;;;;;5.68;1.40;;;;;;;24.28;63.30;158622.66;4890577;29;20032;-77
2022/08/10 09:46:21;;;;;;;4.38;1.33;;;;;;;24.59;60.05;158701.53;4892541;29;20570;-78
2022/08/10 09:48:57;;;;;;;5.70;1.40;;;;;;;24.54;60.10;158688.59;4910688;29;20100;-76
2022/08/10 09:51:42;;;;;;;5.28;1.20;;;;;;;24.62;59.76;158709.31;4900498;29;20054;-76
2022/08/10 09:54:47;;;;;;;3.17;1.30;;;;;;;24.70;57.23;158728.72;4898565;29;20483;-77
2022/08/10 09:57:18;;;;;;;3.13;0.90;;;;;;;24.90;55.50;158777.84;4910267;29;20052;-77
2022/08/10 10:00:08;;;;;;;2.23;0.60;;;;;;;24.84;54.78;158764.91;4895815;29;20109;-78
2022/08/10 10:02:43;;;;;;;2.08;0.80;;;;;;;24.68;55.83;158723.56;4892192;29;20041;-77
2022/08/10 10:05:28;;;;;;;4.90;1.00;;;;;;;24.75;54.01;158740.34;4932122;29;20059;-78
2022/08/10 10:08:39;;;;;;;4.95;1.30;;;;;;;24.75;56.42;158740.34;4905321;29;20036;-77
2022/08/10 10:11:32;;;;;;;4.28;1.55;;;;;;;24.98;56.65;158798.56;4906445;29;20048;-77
2022/08/10 10:14:16;;;;;;;5.47;1.13;;;;;;;25.36;55.41;158895.59;4917195;29;20541;-76
2022/08/10 10:16:59;;;;;;;4.32;1.13;;;;;;;25.36;54.66;158894.31;4916209;29;20462;-76
2022/08/10 10:19:47;;;;;;;3.78;1.00;;;;;;;25.38;55.79;158900.78;4914651;29;20039;-77
2022/08/10 10:22:40;;;;;;;7.43;1.20;;;;;;;25.38;56.91;158900.78;4915861;29;20036;-76
2022/08/10 10:25:36;;;;;;;3.80;1.13;;;;;;;25.63;55.54;158964.16;4906526;29;20071;-77
2022/08/10 10:28:39;;;;;;;5.03;1.52;;;;;;;25.74;54.41;158990.06;4903223;29;20043;-78
2022/08/10 10:31:08;;;;;;;5.90;1.20;;;;;;;25.65;53.86;158968.03;4850649;29;20072;-79
2022/08/10 10:33:58;;;;;;;4.93;1.48;;;;;;;25.57;53.64;158948.63;4918710;29;20545;-79
2022/08/10 10:36:26;;;;;;;1.75;1.05;;;;;;;25.57;56.37;158947.34;4915522;29;20080;-78
2022/08/10 10:38:57;;;;;;;6.88;1.10;;;;;;;25.85;55.76;159018.50;4911441;29;20107;-77
2022/08/10 10:41:47;;;;;;;6.32;1.20;;;;;;;26.19;55.94;159103.97;4903535;29;20032;-76
2022/08/10 10:44:36;;;;;;;4.68;1.00;;;;;;;26.12;54.33;159085.84;4907682;29;20036;-77
2022/08/10 10:47:21;;;;;;;3.08;1.05;;;;;;;26.28;52.77;159125.97;4896250;29;20063;-78
2022/08/10 10:50:04;;;;;;;3.15;1.20;;;;;;;26.21;53.99;159109.13;4914521;29;20063;-77
2022/08/10 10:52:56;;;;;;;3.03;1.00;;;;;;;26.35;55.45;159144.06;4908556;29;20032;-76
2022/08/10 10:55:40;;;;;;;1.63;0.88;;;;;;;26.32;51.24;159136.31;4914825;29;20142;-77
2022/08/10 10:58:21;;;;;;;2.85;1.10;;;;;;;26.30;51.76;159131.16;4912138;29;20036;-75
2022/08/10 11:01:00;;;;;;;2.05;1.08;;;;;;;26.18;50.69;159102.69;4916011;29;20131;-77
2022/08/10 11:03:35;;;;;;;2.65;1.13;;;;;;;26.16;54.08;159096.19;4909477;29;20055;-77
2022/08/10 11:06:17;;;;;;;4.35;1.15;;;;;;;26.36;49.37;159146.66;4916721;29;20056;-77
2022/08/10 11:08:51;;;;;;;3.53;0.60;;;;;;;26.54;51.43;159193.28;4916572;29;20039;-76
2022/08/10 11:11:31;;;;;;;1.65;1.00;;;;;;;26.72;53.18;159237.31;4909123;29;20060;-77
2022/08/10 11:14:15;;;;;;;3.00;0.95;;;;;;;26.75;52.28;159245.09;4898416;29;20044;-78
2022/08/10 11:17:04;;;;;;;3.83;0.93;;;;;;;26.29;50.48;159128.53;4906270;29;20072;-77
2022/08/10 11:19:40;;;;;;;5.40;1.27;;;;;;;26.18;51.38;159102.69;4897334;29;20489;-76
2022/08/10 11:22:17;;;;;;;6.47;1.05;;;;;;;26.42;50.80;159163.47;4902320;29;20040;-78
2022/08/10 11:25:02;;;;;;;4.32;1.13;;;;;;;26.58;50.90;159203.63;4903403;29;20040;-76
2022/08/10 11:27:43;;;;;;;2.05;0.93;;;;;;;26.92;49.83;159289.09;4910952;29;20032;-77
2022/08/10 11:30:13;;;;;;;3.57;1.07;;;;;;;27.08;50.49;159327.94;4914950;29;20086;-77
2022/08/10 11:33:02;;;;;;;1.92;1.02;;;;;;;26.94;50.87;159294.28;4907675;29;20036;-77
2022/08/10 11:35:55;;;;;;;2.58;0.90;;;;;;;27.34;49.41;159394.00;4914672;29;20080;-78
2022/08/10 11:38:57;;;;;;;2.60;0.88;;;;;;;27.61;49.16;159462.63;4897294;29;20058;-77
2022/08/10 11:41:57;;;;;;;2.17;0.90;;;;;;;27.68;47.50;159479.47;4930103;29;20040;-78
2022/08/10 11:44:30;;;;;;;4.57;0.90;;;;;;;27.10;50.98;159333.09;4899232;29;20051;-78
2022/08/10 11:47:16;;;;;;;5.55;1.05;;;;;;;27.11;47.66;159335.72;4925616;29;20032;-78